createdAt,value
2023-05-09T00:01:21.027Z,88.90
2023-05-09T00:01:46.926Z,88.96
2023-05-09T00:02:40.270Z,89
2023-05-09T00:03:39.349Z,89.03
2023-05-09T00:04:39.653Z,89.04
2023-05-09T00:05:40.042Z,89.06
2023-05-09T00:06:39.315Z,89.12
2023-05-09T00:07:39.380Z,89.16
2023-05-09T00:08:39.334Z,89.22
2023-05-09T00:09:39.415Z,89.20
2023-05-09T00:10:40.104Z,89.19
2023-05-09T00:11:39.426Z,89.18
2023-05-09T00:12:39.940Z,89.22
2023-05-09T00:13:39.540Z,89.22
2023-05-09T00:14:39.763Z,89.19
2023-05-09T00:15:39.868Z,89.19
2023-05-09T00:16:39.930Z,89.23
2023-05-09T00:17:39.982Z,89.20
2023-05-09T00:18:39.366Z,89.22
2023-05-09T00:19:39.529Z,89.26
2023-05-09T00:20:39.418Z,89.35
2023-05-09T00:21:53.285Z,89.40
2023-05-09T00:22:39.138Z,89.50
2023-05-09T00:23:39.324Z,89.59
2023-05-09T00:24:39.057Z,89.61
2023-05-09T00:25:39.473Z,89.69
2023-05-09T00:26:39.509Z,89.75
2023-05-09T00:27:39.266Z,89.77
2023-05-09T00:28:39.269Z,89.79
2023-05-09T00:29:39.198Z,89.84
2023-05-09T00:30:39.949Z,89.68
2023-05-09T00:31:39.855Z,89.65
2023-05-09T00:32:39.724Z,89.62
2023-05-09T00:33:39.263Z,89.56
2023-05-09T00:34:38.931Z,89.53
2023-05-09T00:35:39.664Z,89.45
2023-05-09T00:36:39.480Z,89.37
2023-05-09T00:37:39.401Z,89.29
2023-05-09T00:38:39.325Z,89.23
2023-05-09T00:39:39.426Z,89.25
2023-05-09T00:40:39.343Z,89.25
2023-05-09T00:41:39.298Z,89.15
2023-05-09T00:42:39.034Z,89.13
2023-05-09T00:43:39.117Z,89.12
2023-05-09T00:44:38.570Z,89.16
2023-05-09T00:45:39.473Z,89.16
2023-05-09T00:46:39.345Z,89.21
2023-05-09T00:47:39.665Z,89.17
2023-05-09T00:48:39.455Z,89.22
2023-05-09T00:49:39.185Z,89.22
2023-05-09T00:50:39.289Z,89.25
2023-05-09T00:51:47.315Z,89.15
2023-05-09T00:52:39.148Z,89.16
2023-05-09T00:53:39.406Z,89.19
2023-05-09T00:54:39.682Z,89.17
2023-05-09T00:55:40.019Z,89.17
2023-05-09T00:56:39.265Z,89.25
2023-05-09T00:57:39.518Z,89.36
2023-05-09T00:58:39.474Z,89.36
2023-05-09T00:59:39.064Z,89.38
2023-05-09T01:00:39.918Z,89.37
2023-05-09T01:01:40.047Z,89.33
2023-05-09T01:02:39.870Z,89.35
2023-05-09T01:03:40.268Z,89.36
2023-05-09T01:04:39.146Z,89.34
2023-05-09T01:05:39.382Z,89.36
2023-05-09T01:06:39.313Z,89.46
2023-05-09T01:07:39.173Z,89.49
2023-05-09T01:08:39.284Z,89.45
2023-05-09T01:09:39.526Z,89.51
2023-05-09T01:10:39.945Z,89.56
2023-05-09T01:11:40.121Z,89.56
2023-05-09T01:12:39.507Z,89.55
2023-05-09T01:13:58.406Z,89.56
2023-05-09T01:14:39.278Z,89.58
2023-05-09T01:15:39.534Z,89.56
2023-05-09T01:16:39.639Z,89.54
2023-05-09T01:17:39.705Z,89.46
2023-05-09T01:18:39.634Z,89.42
2023-05-09T01:19:39.511Z,89.41
2023-05-09T01:20:39.778Z,89.38
2023-05-09T01:21:39.812Z,89.41
2023-05-09T01:22:39.754Z,89.46
2023-05-09T01:23:39.497Z,89.48
2023-05-09T01:24:39.641Z,89.53
2023-05-09T01:25:39.708Z,89.52
2023-05-09T01:26:39.702Z,89.59
2023-05-09T01:27:39.849Z,89.66
2023-05-09T01:28:39.443Z,89.79
2023-05-09T01:29:39.352Z,89.91
2023-05-09T01:30:39.540Z,89.92
2023-05-09T01:31:39.763Z,89.91
2023-05-09T01:32:39.875Z,90.02
2023-05-09T01:33:39.874Z,90.06
2023-05-09T01:34:39.538Z,90.05
2023-05-09T01:35:39.209Z,90.08
2023-05-09T01:36:39.319Z,90.18
2023-05-09T01:37:39.246Z,90.19
2023-05-09T01:38:39.494Z,90.19
2023-05-09T01:39:39.460Z,90.14
2023-05-09T01:40:39.701Z,90.12
2023-05-09T01:41:39.334Z,90.08
2023-05-09T01:42:39.326Z,90.09
2023-05-09T01:43:39.168Z,90.05
2023-05-09T01:44:39.407Z,90.06
2023-05-09T01:45:39.907Z,90.05
2023-05-09T01:46:39.944Z,90.13
2023-05-09T01:47:39.379Z,90.16
2023-05-09T01:48:39.454Z,90.25
2023-05-09T01:49:39.602Z,90.24
2023-05-09T01:50:39.651Z,90.22
2023-05-09T01:51:40.734Z,90.27
2023-05-09T01:52:39.648Z,90.24
2023-05-09T01:53:39.717Z,90.24
2023-05-09T01:54:39.684Z,90.27
2023-05-09T01:55:39.981Z,90.30
2023-05-09T01:56:39.501Z,90.29
2023-05-09T01:57:39.530Z,90.29
2023-05-09T01:58:39.408Z,90.33
2023-05-09T01:59:39.475Z,90.41
2023-05-09T02:00:40.635Z,90.36
2023-05-09T02:01:40.012Z,90.37
2023-05-09T02:02:39.937Z,90.36
2023-05-09T02:03:39.517Z,90.37
2023-05-09T02:04:39.521Z,90.44
2023-05-09T02:05:40.048Z,90.43
2023-05-09T02:06:39.219Z,90.34
2023-05-09T02:07:39.216Z,90.22
2023-05-09T02:08:39.033Z,90.16
2023-05-09T02:09:39.035Z,90.11
2023-05-09T02:10:39.487Z,90.06
2023-05-09T02:11:39.628Z,90.04
2023-05-09T02:12:39.543Z,90.05
2023-05-09T02:13:39.219Z,90.03
2023-05-09T02:14:39.490Z,90.12
2023-05-09T02:15:39.443Z,90.18
2023-05-09T02:16:39.589Z,90.16
2023-05-09T02:17:39.751Z,90.18
2023-05-09T02:18:39.511Z,90.22
2023-05-09T02:19:39.578Z,90.26
2023-05-09T02:20:39.830Z,90.25
2023-05-09T02:21:39.784Z,90.26
2023-05-09T02:22:39.709Z,90.32
2023-05-09T02:23:39.284Z,90.33
2023-05-09T02:24:39.202Z,90.30
2023-05-09T02:25:39.574Z,90.39
2023-05-09T02:26:39.768Z,90.30
2023-05-09T02:27:39.565Z,90.28
2023-05-09T02:28:39.297Z,90.30
2023-05-09T02:29:39.253Z,90.27
2023-05-09T02:30:44.610Z,90.21
2023-05-09T02:31:39.749Z,90.18
2023-05-09T02:32:44.673Z,90.27
2023-05-09T02:33:39.850Z,90.25
2023-05-09T02:34:44.758Z,90.22
2023-05-09T02:35:39.655Z,90.26
2023-05-09T02:36:39.618Z,90.23
2023-05-09T02:37:39.289Z,90.22
2023-05-09T02:38:39.765Z,90.21
2023-05-09T02:39:39.573Z,90.20
2023-05-09T02:40:39.789Z,90.16
2023-05-09T02:41:39.753Z,90.19
2023-05-09T02:42:39.431Z,90.19
2023-05-09T02:43:39.474Z,90.22
2023-05-09T02:44:39.683Z,90.16
2023-05-09T02:45:39.833Z,90.15
2023-05-09T02:46:39.678Z,90.06
2023-05-09T02:47:39.679Z,90.11
2023-05-09T02:48:44.963Z,90.11
2023-05-09T02:49:47.849Z,90.18
2023-05-09T02:50:40.266Z,90.23
2023-05-09T02:51:39.454Z,90.26
2023-05-09T02:52:39.537Z,90.17
2023-05-09T02:53:39.601Z,90.08
2023-05-09T02:54:39.854Z,90.09
2023-05-09T02:55:39.689Z,90.05
2023-05-09T02:56:40.103Z,90.04
2023-05-09T02:57:39.540Z,90.07
2023-05-09T02:58:39.676Z,89.98
2023-05-09T02:59:39.770Z,89.99
2023-05-09T03:00:41.332Z,89.95
2023-05-09T03:01:39.798Z,89.96
2023-05-09T03:02:40.404Z,89.94
2023-05-09T03:03:40.268Z,89.92
2023-05-09T03:04:39.780Z,89.98
2023-05-09T03:05:40.029Z,90.06
2023-05-09T03:06:39.742Z,90.12
2023-05-09T03:07:39.515Z,90.21
2023-05-09T03:08:39.542Z,90.25
2023-05-09T03:09:41.197Z,90.28
2023-05-09T03:10:39.980Z,90.27
2023-05-09T03:11:39.261Z,90.27
2023-05-09T03:12:39.473Z,90.25
2023-05-09T03:13:39.706Z,90.29
2023-05-09T03:14:39.757Z,90.34
2023-05-09T03:15:39.816Z,90.30
2023-05-09T03:16:39.685Z,90.36
2023-05-09T03:17:39.669Z,90.43
2023-05-09T03:18:39.524Z,90.5
2023-05-09T03:19:39.562Z,90.51
2023-05-09T03:20:39.208Z,90.51
2023-05-09T03:21:39.493Z,90.58
2023-05-09T03:22:39.598Z,90.60
2023-05-09T03:23:39.459Z,90.64
2023-05-09T03:24:39.475Z,90.63
2023-05-09T03:25:39.437Z,90.64
2023-05-09T03:26:39.578Z,90.63
2023-05-09T03:27:39.234Z,90.65
2023-05-09T03:28:39.415Z,90.64
2023-05-09T03:29:39.692Z,90.69
2023-05-09T03:30:40.337Z,90.72
2023-05-09T03:31:39.735Z,90.73
2023-05-09T03:32:39.715Z,90.73
2023-05-09T03:33:39.924Z,90.75
2023-05-09T03:34:39.987Z,90.80
2023-05-09T03:35:39.479Z,90.88
2023-05-09T03:36:39.889Z,90.88
2023-05-09T03:37:42.323Z,90.89
2023-05-09T03:38:39.660Z,90.86
2023-05-09T03:39:39.677Z,90.87
2023-05-09T03:40:40.100Z,90.89
2023-05-09T03:41:39.833Z,90.93
2023-05-09T03:42:39.721Z,90.98
2023-05-09T03:43:39.641Z,90.95
2023-05-09T03:44:39.555Z,90.99
2023-05-09T03:45:39.757Z,91.01
2023-05-09T03:46:39.931Z,91.02
2023-05-09T03:47:40.224Z,91.04
2023-05-09T03:48:39.649Z,91.07
2023-05-09T03:49:39.993Z,91.12
2023-05-09T03:50:39.791Z,91.16
2023-05-09T03:51:42.139Z,91.18
2023-05-09T03:52:39.571Z,91.16
2023-05-09T03:53:39.875Z,91.17
2023-05-09T03:54:40.186Z,91.22
2023-05-09T03:55:39.514Z,91.26
2023-05-09T03:56:39.920Z,91.22
2023-05-09T03:57:40.143Z,91.25
2023-05-09T03:58:39.520Z,91.25
2023-05-09T03:59:39.872Z,91.29
2023-05-09T04:00:40.731Z,91.28
2023-05-09T04:01:40.296Z,91.29
2023-05-09T04:02:40.016Z,91.30
2023-05-09T04:03:39.806Z,91.33
2023-05-09T04:04:39.979Z,91.34
2023-05-09T04:05:39.638Z,91.37
2023-05-09T04:06:39.613Z,91.40
2023-05-09T04:07:39.727Z,91.35
2023-05-09T04:08:39.942Z,91.37
2023-05-09T04:09:39.920Z,91.34
2023-05-09T04:10:40.190Z,91.34
2023-05-09T04:11:39.679Z,91.36
2023-05-09T04:12:40.061Z,91.37
2023-05-09T04:13:39.669Z,91.41
2023-05-09T04:14:40.168Z,91.37
2023-05-09T04:15:39.926Z,91.36
2023-05-09T04:16:40.426Z,91.36
2023-05-09T04:17:40.031Z,91.37
2023-05-09T04:18:39.555Z,91.30
2023-05-09T04:19:40.069Z,91.31
2023-05-09T04:20:39.775Z,91.33
2023-05-09T04:21:39.924Z,91.36
2023-05-09T04:22:39.998Z,91.33
2023-05-09T04:23:39.317Z,91.33
2023-05-09T04:24:39.991Z,91.36
2023-05-09T04:25:39.643Z,91.36
2023-05-09T04:26:39.727Z,91.36
2023-05-09T04:27:40.039Z,91.35
2023-05-09T04:28:39.435Z,91.37
2023-05-09T04:29:39.600Z,91.39
2023-05-09T04:30:40.305Z,91.40
2023-05-09T04:31:39.847Z,91.43
2023-05-09T04:32:40.158Z,91.44
2023-05-09T04:33:39.292Z,91.44
2023-05-09T04:34:39.615Z,91.46
2023-05-09T04:35:39.850Z,91.40
2023-05-09T04:36:40.040Z,91.34
2023-05-09T04:37:39.622Z,91.33
2023-05-09T04:38:40.051Z,91.34
2023-05-09T04:39:39.606Z,91.32
2023-05-09T04:40:42.607Z,91.18
2023-05-09T04:41:40.149Z,91.05
2023-05-09T04:42:39.505Z,91.13
2023-05-09T04:43:39.968Z,91.06
2023-05-09T04:44:39.698Z,90.97
2023-05-09T04:45:40.482Z,90.95
2023-05-09T04:46:41.538Z,91.01
2023-05-09T04:47:40.445Z,90.91
2023-05-09T04:48:40.105Z,90.84
2023-05-09T04:49:39.517Z,90.80
2023-05-09T04:50:40.290Z,90.74
2023-05-09T04:51:40.078Z,90.65
2023-05-09T04:52:39.768Z,90.66
2023-05-09T04:53:40.099Z,90.59
2023-05-09T04:54:39.919Z,90.53
2023-05-09T04:55:45.582Z,90.45
2023-05-09T04:56:39.966Z,90.42
2023-05-09T04:57:40.490Z,90.42
2023-05-09T04:58:40.296Z,90.44
2023-05-09T04:59:40.070Z,90.52
2023-05-09T05:00:40.761Z,90.73
2023-05-09T05:01:44.901Z,90.77
2023-05-09T05:02:40.559Z,90.71
2023-05-09T05:03:47.815Z,90.73
2023-05-09T05:04:40.205Z,90.79
2023-05-09T05:05:41.586Z,90.80
2023-05-09T05:06:40.088Z,90.82
2023-05-09T05:07:39.838Z,90.87
2023-05-09T05:08:40.375Z,90.81
2023-05-09T05:09:47.639Z,90.80
2023-05-09T05:10:40.884Z,90.81
2023-05-09T05:11:40.434Z,90.87
2023-05-09T05:12:39.999Z,90.83
2023-05-09T05:13:53.956Z,90.85
2023-05-09T05:14:40.040Z,90.85
2023-05-09T05:15:39.689Z,90.98
2023-05-09T05:16:40.400Z,91.08
2023-05-09T05:17:40.490Z,91.10
2023-05-09T05:18:40.287Z,91.13
2023-05-09T05:19:39.756Z,91.09
2023-05-09T05:20:40.236Z,91.20
2023-05-09T05:21:40.015Z,91.19
2023-05-09T05:22:39.837Z,91.13
2023-05-09T05:23:40.666Z,91.01
2023-05-09T05:24:40.262Z,90.89
2023-05-09T05:25:40.301Z,90.79
2023-05-09T05:26:39.963Z,90.66
2023-05-09T05:27:41.025Z,90.58
2023-05-09T05:28:39.956Z,90.56
2023-05-09T05:29:40.371Z,90.47
2023-05-09T05:30:40.695Z,90.47
2023-05-09T05:31:45.418Z,90.49
2023-05-09T05:32:40.239Z,90.43
2023-05-09T05:33:44.926Z,90.40
2023-05-09T05:34:40.300Z,90.25
2023-05-09T05:35:40.323Z,90.08
2023-05-09T05:36:40.081Z,89.86
2023-05-09T05:37:39.904Z,89.64
2023-05-09T05:38:40.513Z,89.50
2023-05-09T05:40:01.608Z,89.42
2023-05-09T05:40:40.183Z,88.94
2023-05-09T05:41:39.870Z,88.51
2023-05-09T05:42:40.721Z,88.43
2023-05-09T05:43:40.279Z,88.19
2023-05-09T05:44:40.182Z,87.98
2023-05-09T05:45:40.369Z,87.98
2023-05-09T05:46:40.522Z,87.90
2023-05-09T05:47:40.772Z,87.91
2023-05-09T05:48:40.156Z,87.86
2023-05-09T05:49:40.145Z,87.70
2023-05-09T05:50:39.862Z,87.54
2023-05-09T05:51:40.685Z,87.33
2023-05-09T05:52:40.420Z,87.13
2023-05-09T05:53:40.504Z,87.12
2023-05-09T05:54:39.941Z,87.12
2023-05-09T05:55:40.478Z,87.24
2023-05-09T05:56:39.896Z,87.17
2023-05-09T05:57:40.469Z,87.11
2023-05-09T05:58:40.007Z,87.12
2023-05-09T05:59:39.495Z,87.07
2023-05-09T06:00:41.018Z,87.03
2023-05-09T06:01:39.509Z,86.87
2023-05-09T06:02:40.769Z,86.66
2023-05-09T06:03:40.954Z,86.54
2023-05-09T06:04:39.887Z,86.39
2023-05-09T06:05:40.805Z,86.30
2023-05-09T06:06:40.890Z,86.30
2023-05-09T06:07:40.549Z,86.29
2023-05-09T06:08:41.876Z,86.21
2023-05-09T06:09:40.484Z,86.18
2023-05-09T06:10:40.213Z,86.16
2023-05-09T06:11:39.464Z,86.09
2023-05-09T06:12:42.809Z,85.87
2023-05-09T06:13:40.652Z,85.79
2023-05-09T06:14:40.539Z,85.82
2023-05-09T06:15:40.407Z,85.85
2023-05-09T06:16:40.054Z,85.93
2023-05-09T06:17:39.696Z,85.83
2023-05-09T06:18:40.309Z,85.85
2023-05-09T06:19:40.050Z,85.99
2023-05-09T06:20:40.124Z,85.87
2023-05-09T06:21:40.220Z,85.69
2023-05-09T06:22:40.028Z,85.65
2023-05-09T06:23:44.669Z,85.62
2023-05-09T06:24:51.416Z,85.63
2023-05-09T06:25:39.859Z,85.69
2023-05-09T06:26:40.594Z,85.61
2023-05-09T06:27:40.627Z,85.61
2023-05-09T06:28:40.281Z,85.36
2023-05-09T06:29:40.422Z,85.39
2023-05-09T06:30:42.927Z,85.52
2023-05-09T06:31:41.456Z,85.48
2023-05-09T06:32:40.448Z,85.34
2023-05-09T06:33:40.421Z,85.25
2023-05-09T06:34:40.180Z,85.01
2023-05-09T06:35:40.223Z,84.79
2023-05-09T06:36:40.150Z,84.57
2023-05-09T06:37:39.831Z,84.52
2023-05-09T06:38:40.364Z,84.54
2023-05-09T06:39:39.972Z,84.58
2023-05-09T06:40:40.265Z,84.44
2023-05-09T06:41:40.185Z,84.41
2023-05-09T06:42:39.721Z,84.45
2023-05-09T06:43:40.068Z,84.54
2023-05-09T06:44:40.113Z,84.59
2023-05-09T06:45:40.765Z,84.22
2023-05-09T06:46:40.556Z,83.94
2023-05-09T06:47:40.650Z,83.93
2023-05-09T06:48:40.420Z,83.81
2023-05-09T06:49:40.034Z,83.79
2023-05-09T06:50:40.388Z,83.83
2023-05-09T06:51:40.445Z,83.63
2023-05-09T06:52:40.197Z,83.27
2023-05-09T06:53:40.468Z,82.94
2023-05-09T06:54:40.617Z,82.97
2023-05-09T06:55:40.570Z,82.72
2023-05-09T06:56:40.129Z,82.79
2023-05-09T06:57:40.159Z,82.84
2023-05-09T06:58:40.336Z,83.01
2023-05-09T06:59:40.392Z,82.92
2023-05-09T07:00:41.400Z,82.81
2023-05-09T07:01:40.567Z,82.75
2023-05-09T07:02:40.517Z,82.87
2023-05-09T07:03:40.164Z,82.77
2023-05-09T07:04:40.324Z,82.15
2023-05-09T07:05:40.693Z,81.76
2023-05-09T07:06:40.607Z,81.83
2023-05-09T07:07:40.226Z,82.18
2023-05-09T07:08:40.040Z,82.00
2023-05-09T07:09:40.132Z,82.05
2023-05-09T07:10:40.649Z,82.25
2023-05-09T07:11:40.623Z,82.35
2023-05-09T07:12:40.734Z,82.43
2023-05-09T07:13:40.839Z,82.65
2023-05-09T07:14:40.577Z,82.58
2023-05-09T07:15:56.569Z,82.69
2023-05-09T07:16:40.578Z,82.75
2023-05-09T07:17:40.688Z,82.47
2023-05-09T07:18:40.336Z,82.19
2023-05-09T07:19:40.078Z,82.12
2023-05-09T07:20:40.415Z,82.09
2023-05-09T07:21:40.222Z,81.88
2023-05-09T07:22:40.171Z,81.75
2023-05-09T07:23:39.874Z,81.50
2023-05-09T07:24:40.868Z,81.34
2023-05-09T07:26:44.986Z,81.55
2023-05-09T07:27:39.892Z,81.46
2023-05-09T07:28:40.558Z,81.33
2023-05-09T07:29:39.899Z,81.18
2023-05-09T07:30:40.758Z,81.02
2023-05-09T07:31:40.789Z,80.98
2023-05-09T07:32:40.446Z,81.05
2023-05-09T07:33:40.193Z,81.27
2023-05-09T07:34:53.400Z,81.05
2023-05-09T07:35:39.788Z,80.99
2023-05-09T07:36:40.241Z,81.11
2023-05-09T07:37:39.718Z,81.17
2023-05-09T07:38:40.193Z,81.30
2023-05-09T07:39:39.995Z,81.25
2023-05-09T07:40:40.322Z,80.78
2023-05-09T07:41:39.633Z,80.64
2023-05-09T07:42:40.276Z,80.66
2023-05-09T07:43:40.249Z,80.91
2023-05-09T07:44:53.794Z,80.69
2023-05-09T07:45:40.418Z,80.35
2023-05-09T07:46:40.511Z,80.43
2023-05-09T07:47:40.708Z,80.53
2023-05-09T07:48:40.523Z,80.66
2023-05-09T07:49:40.235Z,80.75
2023-05-09T07:50:40.054Z,80.80
2023-05-09T07:51:40.162Z,80.68
2023-05-09T07:52:40.022Z,80.54
2023-05-09T07:53:40.051Z,80.46
2023-05-09T07:54:58.760Z,80.60
2023-05-09T07:55:41.099Z,80.65
2023-05-09T07:56:40.086Z,80.56
2023-05-09T07:57:40.237Z,80.58
2023-05-09T07:58:45.060Z,80.72
2023-05-09T07:59:39.881Z,80.33
2023-05-09T08:00:41.829Z,80.31
2023-05-09T08:01:40.345Z,80.39
2023-05-09T08:02:40.298Z,80.34
2023-05-09T08:03:40.309Z,80.31
2023-05-09T08:04:40.282Z,80.44
2023-05-09T08:05:40.385Z,80.48
2023-05-09T08:06:40.431Z,80.44
2023-05-09T08:07:39.983Z,80.57
2023-05-09T08:08:47.673Z,80.51
2023-05-09T08:09:40.461Z,80.36
2023-05-09T08:11:11.492Z,80.29
2023-05-09T08:11:44.768Z,80.26
2023-05-09T08:12:40.418Z,80.09
2023-05-09T08:13:40.314Z,79.87
2023-05-09T08:14:40.418Z,79.58
2023-05-09T08:15:40.652Z,79.37
2023-05-09T08:16:40.706Z,79.51
2023-05-09T08:17:40.770Z,79.55
2023-05-09T08:18:40.631Z,79.53
2023-05-09T08:19:40.531Z,79.60
2023-05-09T08:20:40.736Z,79.57
2023-05-09T08:21:40.441Z,79.50
2023-05-09T08:22:54.155Z,79.60
2023-05-09T08:23:39.869Z,79.45
2023-05-09T08:24:40.698Z,79.16
2023-05-09T08:25:40.768Z,79.08
2023-05-09T08:26:40.778Z,78.87
2023-05-09T08:27:40.255Z,78.63
2023-05-09T08:28:40.096Z,78.46
2023-05-09T08:29:39.832Z,78.48
2023-05-09T08:30:40.829Z,78.38
2023-05-09T08:31:40.420Z,78.34
2023-05-09T08:32:40.388Z,78.20
2023-05-09T08:33:41.797Z,78
2023-05-09T08:34:39.780Z,77.98
2023-05-09T08:35:40.936Z,77.95
2023-05-09T08:36:40.639Z,78.10
2023-05-09T08:37:40.700Z,78.22
2023-05-09T08:38:40.717Z,78.51
2023-05-09T08:39:40.519Z,78.67
2023-05-09T08:40:40.320Z,78.48
2023-05-09T08:41:40.221Z,77.94
2023-05-09T08:42:42.206Z,77.72
2023-05-09T08:43:40.447Z,77.66
2023-05-09T08:44:39.812Z,77.63
2023-05-09T08:45:40.934Z,77.74
2023-05-09T08:46:41.270Z,77.94
2023-05-09T08:47:40.497Z,78.21
2023-05-09T08:49:40.069Z,78.45
2023-05-09T08:50:40.252Z,78.62
2023-05-09T08:51:40.722Z,78.73
2023-05-09T08:52:41.087Z,78.34
2023-05-09T08:53:40.395Z,78.14
2023-05-09T08:54:40.168Z,77.99
2023-05-09T08:55:40.307Z,77.91
2023-05-09T08:56:40.111Z,77.88
2023-05-09T08:57:40.382Z,77.90
2023-05-09T08:59:41.898Z,77.33
2023-05-09T09:00:41.404Z,77.44
2023-05-09T09:01:40.438Z,77.34
2023-05-09T09:02:40.537Z,77.13
2023-05-09T09:03:40.029Z,77.23
2023-05-09T09:04:40.073Z,77.28
2023-05-09T09:05:56.741Z,77.06
2023-05-09T09:06:40.729Z,76.98
2023-05-09T09:07:40.386Z,76.91
2023-05-09T09:08:40.118Z,76.69
2023-05-09T09:09:40.393Z,76.59
2023-05-09T09:10:40.237Z,77.25
2023-05-09T09:11:40.074Z,77.53
2023-05-09T09:12:40.634Z,77.46
2023-05-09T09:13:41.108Z,77.40
2023-05-09T09:14:40.315Z,77.28
2023-05-09T09:15:41.066Z,76.80
2023-05-09T09:16:40.196Z,76.63
2023-05-09T09:17:40.061Z,76.53
2023-05-09T09:18:40.158Z,76.67
2023-05-09T09:19:39.840Z,76.73
2023-05-09T09:20:40.707Z,76.65
2023-05-09T09:21:40.760Z,76.57
2023-05-09T09:22:40.807Z,76.34
2023-05-09T09:23:40.625Z,76.19
2023-05-09T09:24:40.172Z,76.10
2023-05-09T09:25:40.136Z,76.04
2023-05-09T09:26:40.107Z,75.91
2023-05-09T09:27:40.029Z,75.44
2023-05-09T09:30:40.442Z,75.46
2023-05-09T09:31:40.426Z,75.51
2023-05-09T09:32:40.088Z,75.50
2023-05-09T09:33:39.877Z,75.28
2023-05-09T09:34:40.381Z,75.38
2023-05-09T09:35:40.160Z,75.70
2023-05-09T09:36:40.046Z,75.73
2023-05-09T09:37:40.218Z,76.09
2023-05-09T09:38:40.010Z,76.20
2023-05-09T09:39:39.772Z,75.80
2023-05-09T09:40:40.568Z,75.09
2023-05-09T09:41:40.058Z,74.69
2023-05-09T09:42:39.977Z,74.87
2023-05-09T09:43:39.815Z,74.73
2023-05-09T09:44:40.526Z,74.48
2023-05-09T09:45:41.017Z,74.43
2023-05-09T09:46:40.442Z,74.06
2023-05-09T09:47:40.173Z,73.72
2023-05-09T09:48:40.417Z,74.08
2023-05-09T09:49:40.235Z,74.56
2023-05-09T09:50:40.272Z,74.48
2023-05-09T09:51:39.771Z,74.36
2023-05-09T09:52:40.423Z,74.11
2023-05-09T09:53:40.081Z,73.88
2023-05-09T09:54:40.379Z,74.23
2023-05-09T09:55:40.364Z,74.17
2023-05-09T09:56:40.781Z,74.18
2023-05-09T09:57:41.679Z,74.32
2023-05-09T09:58:41.774Z,74.55
2023-05-09T09:59:41.232Z,74.36
2023-05-09T10:00:41.188Z,74.05
2023-05-09T10:01:40.060Z,73.87
2023-05-09T10:02:40.112Z,73.99
2023-05-09T10:03:40.281Z,74.26
2023-05-09T10:04:39.765Z,74.51
2023-05-09T10:05:40.775Z,74.56
2023-05-09T10:06:41.022Z,74.81
2023-05-09T10:07:40.503Z,74.74
2023-05-09T10:08:39.992Z,74.99
2023-05-09T10:09:39.740Z,75.01
2023-05-09T10:10:40.824Z,74.99
2023-05-09T10:11:40.640Z,75.05
2023-05-09T10:12:40.427Z,74.87
2023-05-09T10:13:40.924Z,74.83
2023-05-09T10:14:40.871Z,75.01
2023-05-09T10:15:52.310Z,74.72
2023-05-09T10:16:58.722Z,74.60
2023-05-09T10:17:40.774Z,74.36
2023-05-09T10:18:41.535Z,74.18
2023-05-09T10:19:44.920Z,74.13
2023-05-09T10:20:41.090Z,74.00
2023-05-09T10:21:40.165Z,74.06
2023-05-09T10:22:40.405Z,74.38
2023-05-09T10:23:39.824Z,74.36
2023-05-09T10:24:40.314Z,74.83
2023-05-09T10:25:40.274Z,74.67
2023-05-09T10:26:40.206Z,74.48
2023-05-09T10:27:40.048Z,73.95
2023-05-09T10:28:39.948Z,73.43
2023-05-09T10:29:40.555Z,73.36
2023-05-09T10:30:40.548Z,73.51
2023-05-09T10:31:40.224Z,73.37
2023-05-09T10:32:40.490Z,73.20
2023-05-09T10:33:48.259Z,73.30
2023-05-09T10:34:39.796Z,73.57
2023-05-09T10:35:40.484Z,73.42
2023-05-09T10:36:40.054Z,73.39
2023-05-09T10:37:39.733Z,72.84
2023-05-09T10:38:40.341Z,72.76
2023-05-09T10:39:40.688Z,72.89
2023-05-09T10:40:40.997Z,72.81
2023-05-09T10:41:40.326Z,72.59
2023-05-09T10:42:40.489Z,72.48
2023-05-09T10:44:12.023Z,72.04
2023-05-09T10:44:45.108Z,71.63
2023-05-09T10:45:40.185Z,71.68
2023-05-09T10:46:40.196Z,71.75
2023-05-09T10:47:54.350Z,71.47
2023-05-09T10:48:40.123Z,71.55
2023-05-09T10:49:54.194Z,71.62
2023-05-09T10:50:40.007Z,71.99
2023-05-09T10:51:54.343Z,72.20
2023-05-09T10:52:40.286Z,72.24
2023-05-09T10:53:59.055Z,72.83
2023-05-09T10:54:39.767Z,73.02
2023-05-09T10:55:40.940Z,73.04
2023-05-09T10:56:40.204Z,72.78
2023-05-09T10:57:40.599Z,72.63
2023-05-09T10:58:40.586Z,72.43
2023-05-09T10:59:40.383Z,72.45
2023-05-09T11:00:41.218Z,72.15
2023-05-09T11:01:40.341Z,71.55
2023-05-09T11:02:40.501Z,71.58
2023-05-09T11:03:40.455Z,72.07
2023-05-09T11:04:40.228Z,72.00
2023-05-09T11:06:02.309Z,71.78
2023-05-09T11:06:40.247Z,71.30
2023-05-09T11:07:40.228Z,70.73
2023-05-09T11:08:40.531Z,70.74
2023-05-09T11:09:40.473Z,71.03
2023-05-09T11:10:40.250Z,70.96
2023-05-09T11:11:40.068Z,70.88
2023-05-09T11:12:40.181Z,70.70
2023-05-09T11:13:40.534Z,70.28
2023-05-09T11:14:40.180Z,70.13
2023-05-09T11:15:40.475Z,70.00
2023-05-09T11:16:40.297Z,70.18
2023-05-09T11:17:40.938Z,69.98
2023-05-09T11:18:40.274Z,69.90
2023-05-09T11:19:39.910Z,69.92
2023-05-09T11:20:40.750Z,69.60
2023-05-09T11:21:40.480Z,69.36
2023-05-09T11:22:40.413Z,69.42
2023-05-09T11:23:39.912Z,69.23
2023-05-09T11:24:40.497Z,69.05
2023-05-09T11:25:40.459Z,69.10
2023-05-09T11:26:40.420Z,68.83
2023-05-09T11:27:40.295Z,68.41
2023-05-09T11:28:40.474Z,69.04
2023-05-09T11:29:40.202Z,69.45
2023-05-09T11:30:40.541Z,69.90
2023-05-09T11:31:40.704Z,70.01
2023-05-09T11:32:40.395Z,69.69
2023-05-09T11:33:39.918Z,69.44
2023-05-09T11:34:40.501Z,69.29
2023-05-09T11:35:40.539Z,69.42
2023-05-09T11:36:40.203Z,69.30
2023-05-09T11:37:39.846Z,68.96
2023-05-09T11:38:40.171Z,68.70
2023-05-09T11:39:39.649Z,69.25
2023-05-09T11:40:40.082Z,69.01
2023-05-09T11:41:40.157Z,68.51
2023-05-09T11:42:40.221Z,68.29
2023-05-09T11:43:40.570Z,68.43
2023-05-09T11:44:40.252Z,68.26
2023-05-09T11:45:39.973Z,68.16
2023-05-09T11:46:40.139Z,67.55
2023-05-09T11:47:40.278Z,67.5
2023-05-09T11:48:40.453Z,66.98
2023-05-09T11:49:40.195Z,67.05
2023-05-09T11:50:40.143Z,67.54
2023-05-09T11:51:40.913Z,67.62
2023-05-09T11:52:40.701Z,67.66
2023-05-09T11:53:40.773Z,67.89
2023-05-09T11:54:40.835Z,67.16
2023-05-09T11:55:40.817Z,67.09
2023-05-09T11:56:40.621Z,67.46
2023-05-09T11:57:40.297Z,67.73
2023-05-09T11:58:39.849Z,67.63
2023-05-09T11:59:40.464Z,67.76
2023-05-09T12:00:41.381Z,67.62
2023-05-09T12:01:40.335Z,67.73
2023-05-09T12:02:40.737Z,67.52
2023-05-09T12:03:40.925Z,67.84
2023-05-09T12:04:40.107Z,68.01
2023-05-09T12:05:40.570Z,68.36
2023-05-09T12:06:45.606Z,68.31
2023-05-09T12:07:40.356Z,68.24
2023-05-09T12:08:45.212Z,68.15
2023-05-09T12:09:39.979Z,67.90
2023-05-09T12:10:40.207Z,68
2023-05-09T12:11:39.949Z,67.87
2023-05-09T12:12:40.503Z,67.98
2023-05-09T12:13:40.222Z,67.87
2023-05-09T12:14:44.895Z,67.85
2023-05-09T12:15:43.744Z,67.76
2023-05-09T12:16:45.729Z,67.80
2023-05-09T12:17:40.486Z,67.72
2023-05-09T12:18:40.262Z,67.45
2023-05-09T12:19:40.194Z,67.39
2023-05-09T12:20:48.060Z,67.03
2023-05-09T12:21:39.929Z,66.68
2023-05-09T12:22:48.343Z,66.20
2023-05-09T12:23:40.242Z,66.34
2023-05-09T12:24:39.949Z,66.23
2023-05-09T12:25:40.770Z,66.33
2023-05-09T12:26:40.309Z,66.38
2023-05-09T12:27:40.100Z,66.58
2023-05-09T12:28:39.666Z,66.48
2023-05-09T12:29:40.518Z,66.38
2023-05-09T12:30:41.084Z,66.45
2023-05-09T12:31:40.309Z,66.87
2023-05-09T12:32:53.925Z,66.62
2023-05-09T12:33:40.398Z,66.75
2023-05-09T12:34:40.401Z,66.74
2023-05-09T12:35:40.400Z,66.88
2023-05-09T12:36:40.298Z,67.10
2023-05-09T12:37:40.070Z,67.23
2023-05-09T12:38:40.070Z,67.05
2023-05-09T12:39:40.056Z,66.94
2023-05-09T12:40:39.924Z,66.98
2023-05-09T12:41:53.649Z,66.58
2023-05-09T12:42:39.610Z,66.73
2023-05-09T12:43:39.885Z,66.66
2023-05-09T12:44:40.695Z,66.55
2023-05-09T12:45:41.003Z,66.58
2023-05-09T12:46:40.353Z,66.39
2023-05-09T12:47:40.307Z,66.27
2023-05-09T12:48:45.155Z,66.27
2023-05-09T12:49:40.063Z,66.41
2023-05-09T12:50:59.086Z,66.55
2023-05-09T12:51:40.182Z,66.51
2023-05-09T12:52:50.752Z,66.02
2023-05-09T12:53:39.931Z,66.02
2023-05-09T12:54:40.631Z,65.96
2023-05-09T12:55:40.281Z,66.00
2023-05-09T12:56:40.077Z,66.06
2023-05-09T12:57:39.989Z,66.30
2023-05-09T12:58:40.008Z,66.59